Time;durP1;ratioP1;P1;durP2;ratioP2;P2;SDS_P1;SDS_P2;PMS_P1;PMS_P2;Temp;Humidity;BMP_temperature;BMP_pressure;BME280_temperature;BME280_humidity;BME280_pressure;Samples;Min_cycle;Max_cycle;Signal;HPM_P1;HPM_P2
2022/06/06 00:02:30;;;;;;;7.55;4.70;;;13.90;99.90;;;;;;6164505;23;20152;-82
2022/06/06 00:05:18;;;;;;;8.65;4.88;;;13.90;99.90;;;;;;6184906;23;20128;-82
2022/06/06 00:08:06;;;;;;;8.75;4.60;;;13.90;99.90;;;;;;6183377;23;20025;-82
2022/06/06 00:10:58;;;;;;;6.15;5.03;;;13.90;99.90;;;;;;6184871;23;20036;-82
2022/06/06 00:13:47;;;;;;;9.88;5.53;;;13.90;99.90;;;;;;6163494;23;20060;-83
2022/06/06 00:16:37;;;;;;;13.65;5.55;;;13.90;99.90;;;;;;6161491;23;20159;-84
2022/06/06 00:19:28;;;;;;;8.80;5.13;;;13.90;99.90;;;;;;6183965;23;20132;-82
2022/06/06 00:22:16;;;;;;;8.98;5.10;;;13.80;99.90;;;;;;6184129;23;20032;-83
2022/06/06 00:25:04;;;;;;;10.20;5.50;;;13.80;99.90;;;;;;6183096;23;20048;-83
2022/06/06 00:27:53;;;;;;;9.07;5.32;;;13.70;99.90;;;;;;6164357;23;20037;-83
2022/06/06 00:30:41;;;;;;;8.73;5.43;;;13.60;99.90;;;;;;6185427;23;20302;-83
2022/06/06 00:36:38;;;;;;;7.53;4.95;;;13.50;99.90;;;;;;6184198;23;20021;-83
2022/06/06 00:39:25;;;;;;;10.65;6.13;;;13.40;99.90;;;;;;6163659;23;20021;-83
2022/06/06 00:42:25;;;;;;;9.55;5.88;;;13.30;99.90;;;;;;6161741;23;20359;-84
2022/06/06 00:45:29;;;;;;;14.73;6.50;;;13.30;99.90;;;;;;6184055;23;20033;-84
2022/06/06 00:48:22;;;;;;;8.18;5.93;;;13.30;99.90;;;;;;6164157;23;20041;-84
2022/06/06 00:51:15;;;;;;;15.90;7.95;;;13.30;99.90;;;;;;6199013;23;20029;-85
2022/06/06 00:54:06;;;;;;;10.52;7.30;;;13.30;99.90;;;;;;6175356;23;20025;-84
2022/06/06 00:57:02;;;;;;;9.60;7.25;;;13.40;99.90;;;;;;6184872;23;20087;-85
2022/06/06 00:59:52;;;;;;;12.02;7.18;;;13.40;99.90;;;;;;6195246;23;20455;-83
2022/06/06 01:02:42;;;;;;;11.52;7.75;;;13.40;99.90;;;;;;6169965;23;20317;-82
2022/06/06 01:05:30;;;;;;;12.85;7.28;;;13.40;99.90;;;;;;6183616;23;20108;-84
2022/06/06 01:08:20;;;;;;;9.95;7.50;;;13.30;99.90;;;;;;6183969;23;20025;-84
2022/06/06 01:11:07;;;;;;;11.70;7.88;;;13.30;99.90;;;;;;6184585;23;20025;-84
2022/06/06 01:13:58;;;;;;;12.10;8.30;;;13.30;99.90;;;;;;6183027;23;20087;-83
2022/06/06 01:16:54;;;;;;;11.07;7.53;;;13.20;99.90;;;;;;6163884;23;20028;-83
2022/06/06 01:20:02;;;;;;;13.85;8.23;;;13.20;99.90;;;;;;6182829;23;20021;-84
2022/06/06 01:23:48;;;;;;;12.10;7.90;;;13.10;99.90;;;;;;6161820;23;20033;-85
2022/06/06 01:27:06;;;;;;;11.30;7.53;;;13.20;99.90;;;;;;6105798;23;20132;-85
2022/06/06 01:30:01;;;;;;;10.48;7.97;;;13.20;99.90;;;;;;6163645;23;20032;-82
2022/06/06 01:33:02;;;;;;;8.80;7.25;;;13.20;99.90;;;;;;6164520;23;20021;-84
2022/06/06 01:35:52;;;;;;;11.43;6.88;;;13.10;99.90;;;;;;6166343;23;20036;-84
2022/06/06 01:38:40;;;;;;;12.23;7.72;;;13.10;99.90;;;;;;6164078;23;20346;-85
2022/06/06 01:41:30;;;;;;;12.57;7.25;;;13.10;99.90;;;;;;6185147;23;20413;-84
2022/06/06 01:44:53;;;;;;;11.13;8.25;;;13.10;99.90;;;;;;6184930;23;20205;-84
2022/06/06 01:47:47;;;;;;;9.50;7.57;;;13.00;99.90;;;;;;6120894;23;20029;-83
2022/06/06 01:50:40;;;;;;;9.40;7.40;;;13.00;99.90;;;;;;6164097;23;20256;-84
2022/06/06 01:53:37;;;;;;;;;;;13.00;99.90;;;;;;6185006;23;20029;-85
2022/06/06 01:56:31;;;;;;;11.38;8.02;;;12.90;99.90;;;;;;6187312;23;19962;-83
2022/06/06 01:59:19;;;;;;;12.20;8.02;;;12.90;99.90;;;;;;6166740;23;20023;-84
2022/06/06 02:02:06;;;;;;;11.20;8.18;;;12.90;99.90;;;;;;6187774;23;20029;-83
2022/06/06 02:04:53;;;;;;;12.25;8.70;;;12.90;99.90;;;;;;6185300;23;20047;-87
2022/06/06 02:07:43;;;;;;;10.43;8.23;;;12.80;99.90;;;;;;6162996;23;20079;-85
2022/06/06 02:10:32;;;;;;;14.10;9.00;;;12.90;99.90;;;;;;6186201;23;20025;-84
2022/06/06 02:13:19;;;;;;;10.05;7.85;;;12.90;99.90;;;;;;6184020;23;20025;-83
2022/06/06 02:16:06;;;;;;;11.18;8.15;;;12.90;99.90;;;;;;6164621;23;20029;-83
2022/06/06 02:18:53;;;;;;;13.15;8.18;;;12.90;99.90;;;;;;6183152;23;20021;-85
2022/06/06 02:21:40;;;;;;;12.13;7.65;;;12.90;99.90;;;;;;6184022;23;20409;-84
2022/06/06 02:24:27;;;;;;;12.95;8.70;;;12.90;99.90;;;;;;6185111;23;20341;-83
2022/06/06 02:27:18;;;;;;;10.18;8.30;;;12.90;99.90;;;;;;6163590;23;20354;-85
2022/06/06 02:30:11;;;;;;;10.73;8.25;;;12.90;99.90;;;;;;6187354;23;20029;-84
2022/06/06 02:32:58;;;;;;;9.60;7.57;;;12.90;99.90;;;;;;6185816;23;20029;-83
2022/06/06 02:35:46;;;;;;;13.77;8.00;;;12.90;99.90;;;;;;6165209;23;20036;-84
2022/06/06 02:38:34;;;;;;;10.00;7.93;;;12.90;99.90;;;;;;6187409;23;20119;-85
2022/06/06 02:41:24;;;;;;;11.07;7.57;;;12.80;99.90;;;;;;6187220;23;20025;-83
2022/06/06 02:44:11;;;;;;;14.10;8.45;;;12.80;99.90;;;;;;6187738;23;20025;-84
2022/06/06 02:46:59;;;;;;;11.40;8.68;;;12.80;99.90;;;;;;6187571;23;20069;-85
2022/06/06 02:49:46;;;;;;;10.57;9.27;;;12.80;99.90;;;;;;6167661;23;20336;-86
2022/06/06 02:52:34;;;;;;;12.80;9.15;;;12.80;99.90;;;;;;6199192;23;20029;-84
2022/06/06 02:55:22;;;;;;;11.13;9.23;;;12.80;99.90;;;;;;6176920;23;20028;-83
2022/06/06 02:58:11;;;;;;;13.93;8.07;;;12.90;99.90;;;;;;6199795;23;20033;-82
2022/06/06 03:01:10;;;;;;;12.18;8.38;;;12.90;99.90;;;;;;6199211;23;20043;-82
2022/06/06 03:03:57;;;;;;;13.82;8.50;;;12.80;99.90;;;;;;6184266;23;20025;-82
2022/06/06 03:07:07;;;;;;;10.85;8.77;;;12.80;99.90;;;;;;6196596;23;20381;-84
2022/06/06 03:10:17;;;;;;;10.90;8.27;;;12.80;99.90;;;;;;6188773;23;20028;-84
2022/06/06 03:13:46;;;;;;;9.32;7.65;;;12.80;99.90;;;;;;6185638;23;20080;-85
2022/06/06 03:20:48;;;;;;;8.68;7.75;;;12.80;99.90;;;;;;6184500;23;20032;-83
2022/06/06 03:23:46;;;;;;;13.10;7.63;;;12.80;99.90;;;;;;6163950;23;20032;-85
2022/06/06 03:27:16;;;;;;;11.43;8.00;;;12.80;99.90;;;;;;6174274;23;20017;-85
2022/06/06 03:30:47;;;;;;;11.48;7.65;;;12.70;99.90;;;;;;6198242;23;20383;-85
2022/06/06 03:33:52;;;;;;;10.45;7.88;;;12.60;99.90;;;;;;6145367;22;20021;-84
2022/06/06 03:36:46;;;;;;;11.68;7.53;;;12.40;99.90;;;;;;6175072;23;20036;-83
2022/06/06 03:39:50;;;;;;;11.30;8.65;;;12.40;99.90;;;;;;6192556;23;20087;-84
2022/06/06 03:42:46;;;;;;;17.73;9.25;;;12.40;99.90;;;;;;6181681;23;20021;-84
2022/06/06 03:45:39;;;;;;;9.70;8.20;;;12.40;99.90;;;;;;6183997;23;20091;-85
2022/06/06 03:48:47;;;;;;;12.20;8.82;;;12.40;99.90;;;;;;6184823;23;20037;-85
2022/06/06 03:52:04;;;;;;;11.93;9.13;;;12.40;99.90;;;;;;6184373;23;20135;-84
2022/06/06 03:55:06;;;;;;;11.95;8.82;;;12.30;99.90;;;;;;6183092;23;20397;-85
2022/06/06 03:57:56;;;;;;;12.45;9.07;;;12.20;99.90;;;;;;6162932;23;20021;-85
2022/06/06 04:00:45;;;;;;;11.27;8.80;;;12.30;99.90;;;;;;6183187;23;20036;-85
2022/06/06 04:03:35;;;;;;;11.70;10.07;;;12.40;99.90;;;;;;6181719;23;20025;-84
2022/06/06 04:06:36;;;;;;;12.60;10.00;;;12.50;99.90;;;;;;6183552;23;20316;-85
2022/06/06 04:09:32;;;;;;;11.90;9.30;;;12.60;99.90;;;;;;6183218;23;20333;-90
2022/06/06 04:25:30;;;;;;;12.20;8.38;;;12.90;99.90;;;;;;6135059;23;20116;-89
2022/06/06 04:28:38;;;;;;;10.75;8.40;;;12.90;99.90;;;;;;6165930;23;20105;-87
2022/06/06 04:31:41;;;;;;;10.52;7.78;;;13.00;99.90;;;;;;6187031;23;20025;-89
2022/06/06 04:34:42;;;;;;;10.43;8.05;;;13.10;99.90;;;;;;6165674;23;20035;-90
2022/06/06 04:37:40;;;;;;;12.77;7.30;;;13.10;99.90;;;;;;6186036;23;20087;-89
2022/06/06 04:40:52;;;;;;;8.35;7.40;;;13.20;99.90;;;;;;6189252;23;20025;-87
2022/06/06 04:44:07;;;;;;;10.85;8.00;;;13.20;99.90;;;;;;6169334;23;20124;-89
2022/06/06 04:47:20;;;;;;;13.00;7.53;;;13.30;99.90;;;;;;6144990;23;20045;-88
2022/06/06 04:50:13;;;;;;;13.38;7.85;;;13.40;99.90;;;;;;6193765;23;20021;-91
2022/06/06 04:53:11;;;;;;;9.10;6.90;;;13.60;99.90;;;;;;6189547;23;20021;-87
2022/06/06 04:56:00;;;;;;;8.77;6.78;;;13.60;99.90;;;;;;6172174;23;20020;-90
2022/06/06 04:58:51;;;;;;;9.43;6.47;;;13.70;99.90;;;;;;6173911;23;20041;-89
2022/06/06 05:01:39;;;;;;;8.95;5.97;;;13.90;99.90;;;;;;6194351;23;20029;-90
2022/06/06 05:21:08;;;;;;;7.50;5.80;;;14.40;99.90;;;;;;6188892;23;20067;-85
2022/06/06 05:24:16;;;;;;;12.55;6.15;;;14.50;99.90;;;;;;6161764;23;20424;-85
2022/06/06 05:27:25;;;;;;;7.95;5.60;;;14.60;99.90;;;;;;6184862;23;20326;-84
2022/06/06 05:30:41;;;;;;;9.27;5.50;;;14.60;99.90;;;;;;6184820;23;20048;-85
2022/06/06 05:33:42;;;;;;;8.80;5.47;;;14.60;99.90;;;;;;6183358;23;20032;-82
2022/06/06 05:36:48;;;;;;;12.70;5.43;;;14.70;99.90;;;;;;6185440;23;20021;-84
2022/06/06 05:39:53;;;;;;;7.57;5.43;;;14.90;99.90;;;;;;6165377;23;20021;-83
2022/06/06 05:43:04;;;;;;;9.38;5.35;;;15.00;99.90;;;;;;6182690;23;20076;-85
2022/06/06 05:46:34;;;;;;;10.15;5.25;;;15.20;99.90;;;;;;6183308;23;20309;-81
2022/06/06 05:49:46;;;;;;;9.00;5.47;;;15.30;99.90;;;;;;6164243;23;20087;-85
2022/06/06 05:52:48;;;;;;;10.18;5.22;;;15.40;99.90;;;;;;6185864;23;20039;-84
2022/06/06 05:56:05;;;;;;;10.98;5.63;;;15.50;99.90;;;;;;6184513;23;20024;-83
2022/06/06 05:59:10;;;;;;;10.90;5.00;;;15.60;99.90;;;;;;6189885;23;20045;-83
2022/06/06 06:02:23;;;;;;;9.20;4.63;;;15.90;99.90;;;;;;6201739;23;20025;-86
2022/06/06 06:05:35;;;;;;;5.65;4.63;;;16.10;99.90;;;;;;6205050;23;20025;-85
2022/06/06 06:08:52;;;;;;;9.15;4.70;;;16.40;99.90;;;;;;6197872;23;20025;-85
2022/06/06 06:12:13;;;;;;;9.90;4.97;;;16.50;99.90;;;;;;6159286;23;20040;-85
2022/06/06 06:15:24;;;;;;;7.05;4.78;;;16.60;99.90;;;;;;6186465;23;20107;-81
2022/06/06 06:18:40;;;;;;;7.03;4.90;;;16.60;99.90;;;;;;6194542;23;20104;-84
2022/06/06 06:21:36;;;;;;;7.82;4.47;;;16.60;99.90;;;;;;6189808;23;20084;-82
2022/06/06 06:24:33;;;;;;;8.90;4.20;;;16.70;99.90;;;;;;6183404;23;20405;-82
2022/06/06 06:27:22;;;;;;;7.32;4.32;;;16.90;99.90;;;;;;6163455;23;20029;-81
2022/06/06 06:30:13;;;;;;;7.57;4.80;;;16.90;99.90;;;;;;6184917;23;20028;-84
2022/06/06 06:33:03;;;;;;;7.88;4.63;;;16.80;99.90;;;;;;6165324;23;20032;-81
2022/06/06 06:36:02;;;;;;;6.22;4.50;;;16.90;99.90;;;;;;6187059;23;20294;-81
2022/06/06 06:39:15;;;;;;;8.57;5.13;;;17.00;99.90;;;;;;6179645;23;20033;-81
2022/06/06 06:42:02;;;;;;;;;;;17.20;99.90;;;;;;6141783;23;20065;-83
2022/06/06 06:45:03;;;;;;;8.20;4.30;;;17.40;99.90;;;;;;6185844;23;20271;-83
2022/06/06 06:47:55;;;;;;;7.43;4.25;;;17.50;99.90;;;;;;6183752;23;20096;-81
2022/06/06 06:50:57;;;;;;;7.07;4.75;;;17.40;99.90;;;;;;6183606;23;20028;-84
2022/06/06 06:54:09;;;;;;;6.10;4.45;;;17.20;99.90;;;;;;6185629;23;20032;-81
2022/06/06 06:57:15;;;;;;;6.65;4.18;;;17.40;99.90;;;;;;6164481;23;20032;-80
2022/06/06 07:00:20;;;;;;;5.88;4.28;;;17.60;99.90;;;;;;6182523;23;20020;-79
2022/06/06 07:09:57;;;;;;;7.60;4.30;;;18.10;99.90;;;;;;6180795;23;20025;-81
2022/06/06 07:13:12;;;;;;;4.78;3.78;;;18.40;99.90;;;;;;6161573;23;20038;-80
2022/06/06 07:16:18;;;;;;;6.75;4.18;;;18.60;99.90;;;;;;6163816;23;20020;-82
2022/06/06 07:19:13;;;;;;;6.07;3.50;;;18.80;99.90;;;;;;6185210;23;20036;-87
2022/06/06 07:22:03;;;;;;;5.95;3.95;;;18.90;99.90;;;;;;6185244;23;20035;-86
2022/06/06 07:24:58;;;;;;;6.55;3.90;;;18.90;99.90;;;;;;6185470;23;20036;-85
2022/06/06 07:27:45;;;;;;;4.95;3.88;;;18.80;99.90;;;;;;6187817;23;20028;-84
2022/06/06 07:30:45;;;;;;;5.28;3.88;;;18.80;99.90;;;;;;6184981;23;20361;-86
2022/06/06 07:33:36;;;;;;;8.32;4.30;;;18.80;99.90;;;;;;6182898;23;20032;-84
2022/06/06 07:36:41;;;;;;;5.30;3.92;;;18.80;99.90;;;;;;6183581;23;20021;-84
2022/06/06 07:39:50;;;;;;;7.97;4.18;;;18.50;99.90;;;;;;6185796;23;20021;-86
2022/06/06 07:43:12;;;;;;;7.13;4.00;;;18.50;99.90;;;;;;6163850;23;20025;-84
2022/06/06 07:46:16;;;;;;;4.47;3.40;;;19.40;99.90;;;;;;6185832;23;20068;-86
2022/06/06 07:49:12;;;;;;;5.82;3.70;;;20.00;99.90;;;;;;6184363;23;20454;-81
2022/06/06 07:52:38;;;;;;;6.47;2.90;;;20.00;99.90;;;;;;6185841;23;20043;-86
2022/06/06 07:55:38;;;;;;;5.88;3.33;;;19.70;99.90;;;;;;6184416;23;20430;-86
2022/06/06 07:58:47;;;;;;;5.57;3.60;;;19.60;99.90;;;;;;6188330;23;20049;-84
2022/06/06 08:01:58;;;;;;;5.03;3.15;;;19.50;99.90;;;;;;6167808;23;20029;-83
2022/06/06 08:05:12;;;;;;;4.05;3.25;;;19.40;99.90;;;;;;6185371;23;20029;-90
2022/06/06 08:08:05;;;;;;;5.85;3.03;;;19.30;99.90;;;;;;6162673;23;20044;-82
2022/06/06 08:10:59;;;;;;;6.82;3.55;;;19.10;99.90;;;;;;6185471;23;20025;-87
2022/06/06 08:14:10;;;;;;;8.57;3.78;;;19.20;99.90;;;;;;6185643;23;20099;-83
2022/06/06 08:17:18;;;;;;;4.57;2.67;;;19.10;99.90;;;;;;6163454;23;20412;-86
2022/06/06 08:20:32;;;;;;;4.65;2.60;;;19.20;99.90;;;;;;6166112;23;20053;-80
2022/06/06 08:23:22;;;;;;;5.63;3.85;;;19.40;99.90;;;;;;6161621;23;20124;-85
2022/06/06 08:26:10;;;;;;;4.70;2.38;;;19.60;99.90;;;;;;6185177;23;20021;-82
2022/06/06 08:29:00;;;;;;;5.35;2.22;;;19.90;99.90;;;;;;6185188;23;20246;-83
2022/06/06 08:31:47;;;;;;;5.47;2.30;;;20.80;99.90;;;;;;6183455;23;20025;-83
2022/06/06 08:34:35;;;;;;;6.07;2.42;;;21.90;99.90;;;;;;6183200;23;20037;-86
2022/06/06 08:37:25;;;;;;;6.45;1.80;;;22.00;99.90;;;;;;6182871;23;20103;-85
2022/06/06 08:40:37;;;;;;;2.88;1.90;;;21.80;99.90;;;;;;6182772;23;20041;-85
2022/06/06 08:43:59;;;;;;;2.23;1.87;;;22.10;99.30;;;;;;6163741;23;20040;-85
2022/06/06 08:47:08;;;;;;;3.43;1.70;;;22.40;96.80;;;;;;6182484;23;20083;-87
2022/06/06 08:53:18;;;;;;;2.65;1.80;;;23.80;93.20;;;;;;6183791;23;20083;-80
2022/06/06 08:56:44;;;;;;;4.70;1.92;;;23.70;90.00;;;;;;6182562;23;20083;-88
2022/06/06 08:59:50;;;;;;;3.88;1.80;;;22.80;90.90;;;;;;6162984;23;20044;-85
2022/06/06 09:02:38;;;;;;;4.10;1.90;;;22.70;91.80;;;;;;6185578;23;20156;-82
2022/06/06 09:05:57;;;;;;;2.63;1.75;;;22.60;91.80;;;;;;6162444;23;20088;-87
2022/06/06 09:09:17;;;;;;;2.15;1.70;;;23.20;92.10;;;;;;6162339;23;20040;-84
2022/06/06 09:12:23;;;;;;;3.42;1.73;;;23.40;89.10;;;;;;6185681;23;20041;-85
2022/06/06 09:15:55;;;;;;;5.63;1.98;;;22.10;90.70;;;;;;6164084;23;20328;-83
2022/06/06 09:19:10;;;;;;;5.13;2.13;;;21.40;94.20;;;;;;6186258;23;20091;-84
2022/06/06 09:22:23;;;;;;;3.42;1.60;;;21.20;96.00;;;;;;6166614;23;20095;-82
2022/06/06 09:25:31;;;;;;;4.38;1.60;;;21.80;93.70;;;;;;6184642;23;20029;-81
2022/06/06 09:28:56;;;;;;;2.33;1.83;;;21.90;93.70;;;;;;6184401;23;20040;-86
2022/06/06 09:31:46;;;;;;;3.13;1.95;;;22.70;90.00;;;;;;6163160;23;20025;-85
2022/06/06 09:35:05;;;;;;;4.00;1.70;;;23.60;87.40;;;;;;6164179;23;20052;-85
2022/06/06 09:37:59;;;;;;;2.38;1.55;;;23.50;85.30;;;;;;6184213;23;20029;-86
2022/06/06 09:41:25;;;;;;;3.45;1.63;;;23.40;86.40;;;;;;6165276;23;20337;-88
2022/06/06 09:44:32;;;;;;;3.67;1.42;;;24.70;79.70;;;;;;6131586;23;20136;-84
2022/06/06 09:47:40;;;;;;;1.65;1.20;;;24.80;80.10;;;;;;6186164;23;20404;-86
2022/06/06 09:51:00;;;;;;;2.10;1.60;;;23.90;79.10;;;;;;6164531;23;20332;-86
2022/06/06 10:01:30;;;;;;;1.90;1.38;;;23.20;80.40;;;;;;6187511;23;20083;-83
2022/06/06 10:04:39;;;;;;;3.88;1.40;;;22.70;82.00;;;;;;6165968;23;20317;-83
2022/06/06 10:07:52;;;;;;;3.75;1.50;;;22.70;79.80;;;;;;6188505;23;20091;-86
2022/06/06 10:11:12;;;;;;;3.20;1.73;;;23.10;80.30;;;;;;6189371;23;20310;-84
2022/06/06 10:14:18;;;;;;;1.60;1.50;;;23.10;79.10;;;;;;6189153;23;20073;-81
2022/06/06 10:17:26;;;;;;;4.05;1.85;;;22.20;82.60;;;;;;6188643;23;20029;-82
2022/06/06 10:20:44;;;;;;;2.45;1.63;;;22.10;85.20;;;;;;6199907;23;20041;-82
2022/06/06 10:23:46;;;;;;;5.40;1.80;;;22.50;81.40;;;;;;6200543;23;20031;-82
2022/06/06 10:26:52;;;;;;;2.47;1.60;;;22.90;84.10;;;;;;6200907;23;20085;-84
2022/06/06 10:30:14;;;;;;;4.88;1.50;;;23.50;78.40;;;;;;6182199;23;20021;-85
2022/06/06 10:33:22;;;;;;;2.58;1.05;;;24.60;71.40;;;;;;6168036;23;20021;-84
2022/06/06 10:36:28;;;;;;;2.22;1.30;;;25.50;68.60;;;;;;6203652;23;20076;-84
2022/06/06 10:39:25;;;;;;;6.43;1.10;;;25.70;67.20;;;;;;6208736;22;20025;-83
2022/06/06 10:42:40;;;;;;;2.95;1.27;;;25.80;66.10;;;;;;6203230;23;20025;-81
2022/06/06 10:45:46;;;;;;;3.40;1.30;;;25.00;63.50;;;;;;6200586;23;20044;-86
2022/06/06 10:48:37;;;;;;;1.25;1.08;;;24.30;64.40;;;;;;6201519;23;20037;-85
2022/06/06 10:51:55;;;;;;;1.95;1.40;;;24.20;66.10;;;;;;6201985;23;20040;-85
2022/06/06 10:55:16;;;;;;;3.42;1.50;;;24.70;66.10;;;;;;6183410;23;20025;-85
2022/06/06 10:58:44;;;;;;;3.38;1.20;;;25.60;62.80;;;;;;6201922;23;20032;-84
2022/06/06 11:01:47;;;;;;;2.28;1.50;;;24.80;64.00;;;;;;6207770;22;20073;-82
2022/06/06 11:05:14;;;;;;;2.80;1.42;;;24.80;67.60;;;;;;6201839;23;20140;-85
2022/06/06 11:08:26;;;;;;;2.22;1.30;;;25.20;65.10;;;;;;6051743;23;20027;-87
2022/06/06 11:11:13;;;;;;;2.60;1.17;;;24.80;67.00;;;;;;6051503;23;20023;-86
2022/06/06 11:14:04;;;;;;;2.40;1.23;;;24.50;68.10;;;;;;6200024;23;20021;-84
2022/06/06 11:17:24;;;;;;;4.25;1.75;;;23.40;71.10;;;;;;6192648;23;20021;-85
2022/06/06 11:20:50;;;;;;;3.90;1.70;;;23.10;73.70;;;;;;6172652;23;20021;-88
2022/06/06 11:24:11;;;;;;;2.63;1.60;;;22.50;77.20;;;;;;6188046;23;20024;-86
2022/06/06 11:27:25;;;;;;;2.47;1.60;;;22.20;73.80;;;;;;6187857;23;20021;-82
2022/06/06 11:30:42;;;;;;;2.88;1.80;;;21.70;76.90;;;;;;6188712;23;20397;-85
2022/06/06 11:33:51;;;;;;;2.05;1.83;;;21.50;76.80;;;;;;6188246;23;20029;-85
2022/06/06 11:36:59;;;;;;;7.38;1.92;;;21.50;75.40;;;;;;6187468;23;20029;-84
2022/06/06 11:40:28;;;;;;;3.92;1.77;;;21.20;76.40;;;;;;6188158;23;20044;-83
2022/06/06 11:43:52;;;;;;;3.83;1.90;;;21.00;78.30;;;;;;6038037;23;20478;-86
2022/06/06 11:47:17;;;;;;;4.78;1.70;;;20.80;79.30;;;;;;6186742;23;20025;-86
2022/06/06 11:50:29;;;;;;;2.85;1.85;;;20.60;79.80;;;;;;6184564;23;20033;-85
2022/06/06 11:53:28;;;;;;;5.15;1.85;;;20.60;81.80;;;;;;6184010;23;20025;-84
2022/06/06 11:56:43;;;;;;;4.75;1.95;;;20.60;83.20;;;;;;6182704;23;20029;-83
2022/06/06 11:59:45;;;;;;;1.70;1.60;;;20.50;83.30;;;;;;6162137;23;20028;-84
2022/06/06 12:03:32;;;;;;;4.38;1.75;;;20.70;81.50;;;;;;6184608;23;20111;-86
2022/06/06 12:06:38;;;;;;;4.35;1.77;;;20.90;82.10;;;;;;6094825;23;20022;-84
2022/06/06 12:09:43;;;;;;;2.45;1.63;;;21.10;83.40;;;;;;6093800;23;20034;-85
2022/06/06 12:12:39;;;;;;;2.88;1.60;;;21.50;82.70;;;;;;6074964;23;20022;-87
2022/06/06 12:15:50;;;;;;;4.68;1.77;;;22.10;82.30;;;;;;6073564;23;20037;-85
2022/06/06 12:18:58;;;;;;;3.20;1.60;;;22.50;78.40;;;;;;6092595;23;20042;-85
2022/06/06 12:22:13;;;;;;;4.25;1.63;;;23.40;74.50;;;;;;6093199;23;20034;-84
2022/06/06 12:25:38;;;;;;;1.52;1.30;;;23.30;72.90;;;;;;6093432;23;20022;-87
2022/06/06 12:28:49;;;;;;;2.10;1.42;;;22.80;74.60;;;;;;6095993;23;20044;-88
2022/06/06 12:32:15;;;;;;;3.35;1.38;;;23.80;74.00;;;;;;6091810;23;20034;-87
2022/06/06 12:35:16;;;;;;;2.28;1.30;;;25.40;68.30;;;;;;6095692;23;20527;-86
2022/06/06 12:38:25;;;;;;;2.90;1.80;;;27.40;61.40;;;;;;6176195;23;20032;-85
2022/06/06 12:41:12;;;;;;;1.85;1.20;;;27.30;60.70;;;;;;6164226;23;20025;-86
2022/06/06 12:44:02;;;;;;;5.90;1.30;;;27.40;59.80;;;;;;6162232;23;20021;-84
2022/06/06 12:47:07;;;;;;;1.98;1.27;;;28.10;57.70;;;;;;6184816;23;20424;-87
2022/06/06 12:50:19;;;;;;;6.43;1.38;;;29.10;54.40;;;;;;6182830;23;20407;-86
2022/06/06 12:53:13;;;;;;;2.45;1.63;;;29.00;50.60;;;;;;6184272;23;20054;-87
2022/06/06 12:56:23;;;;;;;3.17;1.55;;;26.60;55.20;;;;;;6183507;23;20052;-86
2022/06/06 12:59:46;;;;;;;1.50;1.20;;;25.60;57.90;;;;;;6183872;23;20036;-84
2022/06/06 13:02:34;;;;;;;2.22;1.50;;;24.60;58.30;;;;;;6185857;23;20099;-84
2022/06/06 13:05:35;;;;;;;2.45;1.20;;;23.40;60.10;;;;;;6183886;23;20119;-86
2022/06/06 13:08:52;;;;;;;2.25;1.45;;;22.50;62.20;;;;;;6183387;23;20021;-88
2022/06/06 13:11:52;;;;;;;1.88;1.38;;;22.30;64.30;;;;;;6185052;23;20385;-85
2022/06/06 13:15:01;;;;;;;5.45;1.38;;;22.20;66.20;;;;;;6185417;23;20104;-86
2022/06/06 13:17:57;;;;;;;3.00;1.50;;;22.40;67.10;;;;;;6182647;23;20036;-87
2022/06/06 13:21:03;;;;;;;2.60;1.70;;;22.50;68.70;;;;;;6184477;23;20021;-83
2022/06/06 13:24:20;;;;;;;3.10;1.80;;;22.40;68.00;;;;;;6183966;23;20036;-86
2022/06/06 13:27:25;;;;;;;5.55;1.65;;;22.20;69.10;;;;;;6160140;23;20017;-81
2022/06/06 13:30:57;;;;;;;3.78;1.65;;;22.20;68.90;;;;;;6184032;23;20021;-86
2022/06/06 13:34:10;;;;;;;5.20;1.45;;;22.10;74.10;;;;;;6163590;23;20029;-91
2022/06/06 13:37:15;;;;;;;3.28;1.50;;;22.00;69.60;;;;;;6184127;23;20021;-88
2022/06/06 13:40:12;;;;;;;6.68;1.63;;;22.10;71.80;;;;;;6164160;23;20280;-87
2022/06/06 13:43:11;;;;;;;2.40;1.50;;;22.20;74.00;;;;;;6165003;23;20089;-86
2022/06/06 13:46:14;;;;;;;1.98;1.30;;;22.30;71.90;;;;;;6185966;23;20405;-88
2022/06/06 13:49:04;;;;;;;;;;;22.20;69.70;;;;;;6188325;23;20084;-87
2022/06/06 13:51:57;;;;;;;7.25;1.98;;;22.20;74.80;;;;;;6186241;23;20285;-85
2022/06/06 13:54:44;;;;;;;2.53;1.73;;;22.10;77.70;;;;;;6184411;23;20440;-87
2022/06/06 13:57:45;;;;;;;2.72;1.38;;;22.10;73.70;;;;;;6184191;23;20178;-85
2022/06/06 14:00:52;;;;;;;2.75;1.50;;;22.30;78.10;;;;;;6164267;23;20025;-84
2022/06/06 14:04:02;;;;;;;2.55;1.30;;;22.60;75.10;;;;;;6164601;23;20356;-87
2022/06/06 14:06:58;;;;;;;3.22;1.30;;;23.00;77.90;;;;;;6184798;23;20096;-86
2022/06/06 14:09:47;;;;;;;3.97;1.75;;;23.10;73.50;;;;;;6184617;23;20028;-90
2022/06/06 14:13:13;;;;;;;4.68;1.85;;;23.20;73.50;;;;;;6163874;23;20028;-84
2022/06/06 14:16:01;;;;;;;1.50;1.30;;;23.90;73.40;;;;;;6086882;23;20079;-86
2022/06/06 14:18:54;;;;;;;6.15;1.65;;;24.80;67.10;;;;;;6165640;23;20029;-88
2022/06/06 14:22:06;;;;;;;3.92;1.33;;;24.90;69.60;;;;;;6163348;23;20029;-87
2022/06/06 14:24:54;;;;;;;1.80;1.25;;;25.00;66.70;;;;;;6163685;23;20036;-86
2022/06/06 14:27:43;;;;;;;2.58;1.40;;;25.20;66.10;;;;;;6163167;23;20163;-89
2022/06/06 14:30:33;;;;;;;4.28;1.70;;;25.90;65.30;;;;;;6164904;23;20025;-87
2022/06/06 14:33:30;;;;;;;15.02;1.60;;;26.50;61.20;;;;;;6186068;23;20033;-86
2022/06/06 14:36:20;;;;;;;2.28;1.48;;;26.20;61.40;;;;;;6162346;23;20333;-85
2022/06/06 14:39:23;;;;;;;2.63;1.67;;;26.30;61.30;;;;;;6185455;23;20313;-86
2022/06/06 14:42:11;;;;;;;3.95;1.20;;;26.10;58.80;;;;;;6183782;23;20116;-87
2022/06/06 14:45:06;;;;;;;1.75;1.30;;;26.00;60.10;;;;;;6161663;23;20037;-87
2022/06/06 14:47:59;;;;;;;6.80;1.60;;;26.10;60.10;;;;;;6185443;23;20025;-85
2022/06/06 14:50:56;;;;;;;3.88;1.77;;;25.80;63.20;;;;;;6164320;23;20091;-87
2022/06/06 14:53:46;;;;;;;1.15;1.05;;;25.40;58.00;;;;;;6184531;23;20040;-86
2022/06/06 14:56:44;;;;;;;3.35;1.42;;;24.60;58.20;;;;;;6184526;23;20043;-85
2022/06/06 14:59:51;;;;;;;1.35;1.10;;;23.80;59.40;;;;;;6183354;23;20025;-87
2022/06/06 15:02:39;;;;;;;3.80;1.17;;;23.60;61.80;;;;;;6163115;23;20021;-85
2022/06/06 15:05:26;;;;;;;4.10;1.40;;;24.00;60.40;;;;;;6183238;23;20079;-88
2022/06/06 15:08:22;;;;;;;4.40;1.60;;;23.90;59.00;;;;;;6164938;23;20070;-87
2022/06/06 15:11:14;;;;;;;4.25;1.40;;;23.50;60.70;;;;;;6184441;23;20041;-84
2022/06/06 15:14:14;;;;;;;3.25;1.30;;;23.70;61.50;;;;;;6187513;23;20025;-80
2022/06/06 15:17:13;;;;;;;3.03;1.08;;;23.60;63.20;;;;;;6187454;23;20029;-84
2022/06/06 15:20:21;;;;;;;1.92;1.23;;;24.10;62.80;;;;;;6183890;23;20292;-83
2022/06/06 15:23:24;;;;;;;1.30;1.20;;;24.20;61.10;;;;;;6184563;23;20044;-87
2022/06/06 15:26:11;;;;;;;2.38;1.30;;;24.20;62.10;;;;;;6185324;23;20036;-85
2022/06/06 15:29:40;;;;;;;3.40;1.10;;;24.40;60.10;;;;;;6186254;23;20036;-84
2022/06/06 15:32:44;;;;;;;3.42;1.30;;;24.80;60.70;;;;;;6165345;23;20119;-85
2022/06/06 15:36:03;;;;;;;2.78;1.30;;;24.60;59.70;;;;;;6183761;23;20029;-85
2022/06/06 15:39:09;;;;;;;5.05;1.40;;;24.70;60.10;;;;;;6182564;23;20025;-83
2022/06/06 15:42:21;;;;;;;3.55;1.35;;;24.60;59.90;;;;;;6182970;23;20029;-84
2022/06/06 15:45:17;;;;;;;1.45;1.10;;;23.90;61.20;;;;;;6183842;23;20029;-85
2022/06/06 15:48:04;;;;;;;4.95;1.60;;;23.70;63.90;;;;;;6182924;23;20033;-85
2022/06/06 15:51:00;;;;;;;2.28;1.50;;;23.50;65.90;;;;;;6184926;23;20052;-86
2022/06/06 15:53:57;;;;;;;2.28;1.40;;;23.20;68.80;;;;;;6183765;23;20048;-87
2022/06/06 15:57:12;;;;;;;4.35;1.80;;;23.10;69.70;;;;;;6183610;23;20038;-84
2022/06/06 16:00:12;;;;;;;3.28;1.75;;;23.10;73.40;;;;;;6185175;23;20298;-89
2022/06/06 16:03:25;;;;;;;2.00;1.50;;;23.10;73.00;;;;;;6163615;23;20025;-87
2022/06/06 16:06:16;;;;;;;3.03;2.00;;;23.20;71.70;;;;;;6164389;23;20028;-85
2022/06/06 16:09:40;;;;;;;6.25;1.60;;;23.10;73.40;;;;;;6164869;23;20285;-85
2022/06/06 16:12:42;;;;;;;2.38;1.65;;;23.00;72.80;;;;;;6186345;23;20039;-85
2022/06/06 16:15:38;;;;;;;6.00;1.80;;;22.90;72.00;;;;;;6190949;23;20024;-86
2022/06/06 16:18:39;;;;;;;2.88;1.80;;;22.80;72.10;;;;;;6197516;23;20420;-82
2022/06/06 16:21:45;;;;;;;4.32;2.03;;;23.30;72.20;;;;;;6179406;23;20025;-85
2022/06/06 16:24:32;;;;;;;8.23;3.03;;;23.80;71.70;;;;;;6197138;23;20025;-85
2022/06/06 16:27:28;;;;;;;4.38;1.52;;;23.90;74.20;;;;;;6179390;23;20063;-82
2022/06/06 16:30:21;;;;;;;1.85;1.42;;;24.10;71.90;;;;;;6209569;22;20043;-86
2022/06/06 16:33:15;;;;;;;;;;;24.20;73.70;;;;;;6178342;23;20080;-85
2022/06/06 16:36:10;;;;;;;3.72;1.80;;;24.10;74.30;;;;;;6196909;23;19916;-86
2022/06/06 16:39:00;;;;;;;5.40;1.77;;;24.00;73.20;;;;;;6194288;23;20045;-82
2022/06/06 16:48:39;;;;;;;2.45;1.60;;;22.80;77.40;;;;;;6187258;23;20028;-85